createdAt,value
2019-03-16T00:00:55.625Z,10.50
2019-03-16T00:03:25.135Z,10.40
2019-03-16T00:05:51.536Z,10.40
2019-03-16T00:08:19.077Z,10.40
2019-03-16T00:10:45.373Z,10.40
2019-03-16T00:13:17.410Z,10.40
2019-03-16T00:15:43.743Z,10.30
2019-03-16T00:18:10.031Z,10.30
2019-03-16T00:20:36.320Z,10.30
2019-03-16T00:23:08.811Z,10.30
2019-03-16T00:25:35.077Z,10.30
2019-03-16T00:28:01.362Z,10.30
2019-03-16T00:30:27.650Z,10.20
2019-03-16T00:32:53.929Z,10.20
2019-03-16T00:35:21.178Z,10.20
2019-03-16T00:38:07.336Z,10.10
2019-03-16T00:40:33.625Z,10.20
2019-03-16T00:42:59.885Z,10.20
2019-03-16T00:45:26.200Z,10.10
2019-03-16T00:47:52.490Z,10.10
2019-03-16T00:50:18.764Z,10.10
2019-03-16T00:52:45.061Z,10.10
2019-03-16T00:55:11.413Z,10.10
2019-03-16T00:57:37.723Z,10.10
2019-03-16T01:00:07.815Z,10.10
2019-03-16T01:02:34.209Z,10.10
2019-03-16T01:05:00.532Z,10.10
2019-03-16T01:07:26.780Z,10.20
2019-03-16T01:09:53.139Z,10.10
2019-03-16T01:12:19.424Z,10.10
2019-03-16T01:14:46.138Z,10.10
2019-03-16T01:17:12.368Z,10.10
2019-03-16T01:19:38.744Z,10.00
2019-03-16T01:22:05.033Z,10.10
2019-03-16T01:24:33.292Z,10.10
2019-03-16T01:26:59.567Z,9.90
2019-03-16T01:29:25.837Z,10.10
2019-03-16T01:31:52.109Z,10.20
2019-03-16T01:34:18.382Z,10.20
2019-03-16T01:36:44.676Z,10.00
2019-03-16T01:39:17.005Z,10.10
2019-03-16T01:41:43.260Z,10.10
2019-03-16T01:44:29.441Z,10.10
2019-03-16T01:46:55.705Z,10.20
2019-03-16T01:49:22.020Z,10.10
2019-03-16T01:51:54.120Z,10.00
2019-03-16T01:54:20.482Z,10.10
2019-03-16T01:56:46.792Z,10.00
2019-03-16T01:59:13.058Z,10.10
2019-03-16T02:01:39.374Z,10.10
2019-03-16T02:04:08.710Z,10.00
2019-03-16T02:06:38.072Z,9.90
2019-03-16T02:09:05.871Z,10.00
2019-03-16T02:11:37.200Z,9.90
2019-03-16T02:14:05.476Z,9.80
2019-03-16T02:16:31.797Z,9.80
2019-03-16T02:18:58.098Z,9.80
2019-03-16T02:21:24.444Z,9.50
2019-03-16T02:23:50.749Z,9.60
2019-03-16T02:26:17.023Z,9.70
2019-03-16T02:28:43.333Z,9.70
2019-03-16T02:31:15.498Z,9.30
2019-03-16T02:33:43.035Z,9.30
2019-03-16T02:36:09.297Z,9.40
2019-03-16T02:38:35.635Z,9.30
2019-03-16T02:41:01.965Z,9.40
2019-03-16T02:43:28.273Z,9.30
2019-03-16T02:45:54.569Z,9.30
2019-03-16T02:48:20.881Z,9.40
2019-03-16T02:50:47.157Z,9.20
2019-03-16T02:53:13.451Z,9.20
2019-03-16T02:55:39.764Z,9.40
2019-03-16T02:58:06.023Z,9.40
2019-03-16T03:00:32.283Z,9.60
2019-03-16T03:02:58.615Z,9.90
2019-03-16T03:05:24.921Z,10.00
2019-03-16T03:07:51.214Z,10.20
2019-03-16T03:10:17.475Z,10.40
2019-03-16T03:12:43.760Z,10.50
2019-03-16T03:15:11.511Z,10.70
2019-03-16T03:17:37.825Z,10.70
2019-03-16T03:20:06.742Z,10.70
2019-03-16T03:22:33.067Z,10.70
2019-03-16T03:24:59.341Z,10.70
2019-03-16T03:27:27.638Z,10.80
2019-03-16T03:29:57.306Z,10.80
2019-03-16T03:32:22.115Z,10.70
2019-03-16T03:34:48.440Z,10.70
2019-03-16T03:37:20.617Z,10.70
2019-03-16T03:39:46.938Z,10.80
2019-03-16T03:42:13.235Z,10.80
2019-03-16T03:44:39.518Z,10.80
2019-03-16T03:47:05.793Z,10.80
2019-03-16T03:49:32.057Z,10.80
2019-03-16T03:51:58.363Z,10.90
2019-03-16T03:54:24.646Z,11.00
2019-03-16T03:56:50.962Z,11.00
2019-03-16T03:59:17.384Z,10.90
2019-03-16T04:01:43.685Z,10.90
2019-03-16T04:04:15.722Z,10.80
2019-03-16T04:06:38.079Z,10.90
2019-03-16T04:09:06.375Z,10.90
2019-03-16T04:11:32.696Z,10.90
2019-03-16T04:13:58.965Z,10.90
2019-03-16T04:16:25.338Z,10.90
2019-03-16T04:18:52.110Z,10.90
2019-03-16T04:21:18.504Z,10.70
2019-03-16T04:23:44.930Z,10.70
2019-03-16T04:26:11.379Z,10.60
2019-03-16T04:28:37.660Z,10.60
2019-03-16T04:31:04.025Z,10.50
2019-03-16T04:33:30.338Z,10.60
2019-03-16T04:35:56.619Z,10.50
2019-03-16T04:38:23.017Z,10.50
2019-03-16T04:40:49.311Z,10.60
2019-03-16T04:43:21.544Z,10.70
2019-03-16T04:45:47.909Z,10.70
2019-03-16T04:48:14.214Z,10.60
2019-03-16T04:50:40.510Z,10.70
2019-03-16T04:53:06.827Z,10.60
2019-03-16T04:55:33.099Z,10.60
2019-03-16T04:57:59.375Z,10.60
2019-03-16T05:00:25.733Z,10.60
2019-03-16T05:02:52.021Z,10.60
2019-03-16T05:05:18.289Z,10.60
2019-03-16T05:07:47.660Z,10.50
2019-03-16T05:10:13.926Z,10.50
2019-03-16T05:12:40.221Z,10.60
2019-03-16T05:15:07.823Z,10.70
2019-03-16T05:17:34.114Z,10.70
2019-03-16T05:20:00.448Z,10.70
2019-03-16T05:22:27.834Z,10.70
2019-03-16T05:24:54.132Z,10.70
2019-03-16T05:27:20.428Z,10.60
2019-03-16T05:29:46.741Z,10.60
2019-03-16T05:32:13.021Z,10.60
2019-03-16T05:34:39.361Z,10.60
2019-03-16T05:37:11.674Z,10.60
2019-03-16T05:39:37.944Z,10.60
2019-03-16T05:42:05.361Z,10.60
2019-03-16T05:44:32.046Z,10.60
2019-03-16T05:46:58.447Z,10.70
2019-03-16T05:49:24.741Z,10.70
2019-03-16T05:51:51.166Z,10.80
2019-03-16T05:54:17.433Z,10.80
2019-03-16T05:56:43.757Z,10.80
2019-03-16T05:59:10.252Z,10.70
2019-03-16T06:01:36.598Z,10.60
2019-03-16T06:04:02.913Z,10.70
2019-03-16T06:06:29.203Z,10.80
2019-03-16T06:08:55.855Z,10.80
2019-03-16T06:11:22.182Z,10.70
2019-03-16T06:13:48.499Z,10.60
2019-03-16T06:16:14.780Z,10.60
2019-03-16T06:18:41.100Z,10.60
2019-03-16T06:21:07.389Z,10.60
2019-03-16T06:23:36.910Z,10.60
2019-03-16T06:26:03.214Z,10.60
2019-03-16T06:28:32.600Z,10.70
2019-03-16T06:31:01.964Z,10.70
2019-03-16T06:33:40.735Z,10.70
2019-03-16T06:36:10.139Z,10.70
2019-03-16T06:38:36.414Z,10.70
2019-03-16T06:41:05.919Z,10.70
2019-03-16T06:43:35.387Z,10.70
2019-03-16T06:46:26.635Z,10.80
2019-03-16T06:49:22.630Z,10.80
2019-03-16T06:51:55.733Z,10.80
2019-03-16T06:54:25.121Z,10.70
2019-03-16T06:56:51.434Z,10.70
2019-03-16T06:59:25.896Z,10.70
2019-03-16T07:02:24.492Z,10.70
2019-03-16T07:04:57.311Z,10.70
2019-03-16T07:07:25.813Z,10.80
2019-03-16T07:10:01.200Z,10.80
2019-03-16T07:12:36.388Z,10.80
2019-03-16T07:15:13.072Z,10.80
2019-03-16T07:17:39.387Z,10.80
2019-03-16T07:20:12.973Z,10.80
2019-03-16T07:22:44.605Z,10.90
2019-03-16T07:25:19.986Z,10.90
2019-03-16T07:27:49.434Z,10.90
2019-03-16T07:30:16.816Z,11.00
2019-03-16T07:32:46.265Z,11.00
2019-03-16T07:35:24.616Z,11.00
2019-03-16T07:37:50.908Z,11.00
2019-03-16T07:40:20.329Z,11.10
2019-03-16T07:42:49.730Z,11.10
2019-03-16T07:45:19.109Z,11.10
2019-03-16T07:47:45.488Z,10.90
2019-03-16T07:50:17.763Z,11.00
2019-03-16T07:52:47.159Z,11.10
2019-03-16T07:55:22.815Z,11.10
2019-03-16T07:57:49.258Z,11.00
2019-03-16T08:00:15.517Z,11.10
2019-03-16T08:02:44.866Z,11.10
2019-03-16T08:05:18.708Z,11.20
2019-03-16T08:07:42.543Z,11.20
2019-03-16T08:10:16.049Z,11.10
2019-03-16T08:12:42.427Z,11.10
2019-03-16T08:15:17.533Z,11.10
2019-03-16T08:17:46.962Z,11.20
2019-03-16T08:20:27.723Z,11.30
2019-03-16T08:22:57.162Z,11.40
2019-03-16T08:25:35.930Z,11.60
2019-03-16T08:28:08.690Z,11.60
2019-03-16T08:30:40.922Z,11.80
2019-03-16T08:33:13.293Z,11.70
2019-03-16T08:35:56.071Z,11.70
2019-03-16T08:38:26.476Z,11.70
2019-03-16T08:41:02.681Z,11.90
2019-03-16T08:43:32.543Z,12.30
2019-03-16T08:46:14.201Z,12.60
2019-03-16T08:48:40.506Z,12.70
2019-03-16T08:51:06.782Z,13.00
2019-03-16T08:53:59.042Z,12.80
2019-03-16T08:56:25.342Z,13.00
2019-03-16T08:59:07.087Z,12.90
2019-03-16T09:01:33.429Z,12.80
2019-03-16T09:04:15.233Z,13.00
2019-03-16T09:06:47.470Z,13.50
2019-03-16T09:09:16.997Z,13.70
2019-03-16T09:11:46.420Z,13.60
2019-03-16T09:14:16.058Z,13.50
2019-03-16T09:16:48.362Z,13.80
2019-03-16T09:19:38.533Z,13.80
2019-03-16T09:22:18.128Z,13.50
2019-03-16T09:24:47.547Z,13.00
2019-03-16T09:27:16.909Z,13.00
2019-03-16T09:29:44.308Z,12.90
2019-03-16T09:32:30.541Z,12.90
2019-03-16T09:35:00.051Z,13.00
2019-03-16T09:37:41.295Z,12.90
2019-03-16T09:40:08.724Z,12.80
2019-03-16T09:42:40.825Z,12.80
2019-03-16T09:45:20.797Z,12.70
2019-03-16T09:47:47.231Z,12.70
2019-03-16T09:50:25.670Z,12.80
2019-03-16T09:52:51.979Z,12.80
2019-03-16T09:55:21.430Z,12.70
2019-03-16T09:57:47.773Z,12.80
2019-03-16T10:00:17.467Z,12.80
2019-03-16T10:02:49.477Z,12.70
2019-03-16T10:05:50.840Z,12.70
2019-03-16T10:08:19.320Z,12.70
2019-03-16T10:10:48.917Z,12.60
2019-03-16T10:13:15.246Z,12.50
2019-03-16T10:15:47.334Z,12.50
2019-03-16T10:18:16.903Z,12.60
2019-03-16T10:20:43.190Z,12.50
2019-03-16T10:23:33.473Z,12.30
2019-03-16T10:25:59.737Z,12.30
2019-03-16T10:28:26.066Z,12.30
2019-03-16T10:30:58.279Z,12.50
2019-03-16T10:33:24.653Z,12.60
2019-03-16T10:35:52.096Z,12.80
2019-03-16T10:38:21.440Z,12.80
2019-03-16T10:40:47.785Z,13.00
2019-03-16T10:43:33.159Z,12.90
2019-03-16T10:46:08.227Z,12.80
2019-03-16T10:48:33.566Z,12.70
2019-03-16T10:51:21.906Z,12.70
2019-03-16T10:53:51.349Z,12.80
2019-03-16T10:56:28.701Z,13.10
2019-03-16T10:58:58.025Z,13.20
2019-03-16T11:01:24.291Z,13.50
2019-03-16T11:03:50.614Z,13.60
2019-03-16T11:06:28.187Z,13.30
2019-03-16T11:09:00.610Z,13.30
2019-03-16T11:11:28.930Z,13.30
2019-03-16T11:13:55.223Z,13.40
2019-03-16T11:16:27.546Z,13.40
2019-03-16T11:18:53.847Z,13.20
2019-03-16T11:21:20.204Z,13.10
2019-03-16T11:23:49.638Z,13.10
2019-03-16T11:26:18.109Z,13.20
2019-03-16T11:28:44.441Z,13.30
2019-03-16T11:31:10.877Z,13.30
2019-03-16T11:33:42.892Z,13.20
2019-03-16T11:36:24.558Z,13.00
2019-03-16T11:38:53.964Z,12.90
2019-03-16T11:41:23.436Z,12.90
2019-03-16T11:43:49.728Z,12.60
2019-03-16T11:46:37.583Z,12.70
2019-03-16T11:49:03.874Z,12.70
2019-03-16T11:51:35.992Z,12.70
2019-03-16T11:54:13.757Z,12.70
2019-03-16T11:56:42.125Z,12.60
2019-03-16T11:59:21.924Z,12.80
2019-03-16T12:01:47.596Z,12.90
2019-03-16T12:04:20.790Z,12.90
2019-03-16T12:06:49.118Z,13.00
2019-03-16T12:09:21.205Z,12.80
2019-03-16T12:11:59.652Z,12.80
2019-03-16T12:14:29.009Z,12.80
2019-03-16T12:17:04.741Z,12.70
2019-03-16T12:19:40.303Z,12.70
2019-03-16T12:22:06.724Z,12.60
2019-03-16T12:24:34.090Z,12.70
2019-03-16T12:27:02.646Z,12.80
2019-03-16T12:29:34.318Z,12.80
2019-03-16T12:31:58.457Z,12.90
2019-03-16T12:34:39.847Z,13.00
2019-03-16T12:37:06.236Z,13.20
2019-03-16T12:40:03.858Z,13.20
2019-03-16T12:42:30.194Z,13.00
2019-03-16T12:44:56.559Z,12.70
2019-03-16T12:47:24.865Z,12.70
2019-03-16T12:49:51.174Z,13.00
2019-03-16T12:52:20.381Z,12.90
2019-03-16T12:55:03.017Z,12.80
2019-03-16T12:57:48.039Z,12.80
2019-03-16T13:00:17.177Z,12.80
2019-03-16T13:03:17.083Z,12.80
2019-03-16T13:05:45.476Z,12.90
2019-03-16T13:08:33.683Z,12.80
2019-03-16T13:11:07.040Z,12.70
2019-03-16T13:13:45.554Z,12.70
2019-03-16T13:16:12.017Z,12.60
2019-03-16T13:18:41.327Z,12.60
2019-03-16T13:21:09.625Z,12.70
2019-03-16T13:23:35.912Z,12.90
2019-03-16T13:26:02.267Z,13.10
2019-03-16T13:28:29.692Z,13.10
2019-03-16T13:30:55.923Z,13.00
2019-03-16T13:33:22.251Z,13.10
2019-03-16T13:35:58.583Z,12.90
2019-03-16T13:38:36.204Z,12.90
2019-03-16T13:41:02.448Z,12.90
2019-03-16T13:43:31.831Z,12.80
2019-03-16T13:45:59.196Z,12.80
2019-03-16T13:48:28.651Z,12.80
2019-03-16T13:51:05.423Z,13.10
2019-03-16T13:53:32.747Z,13.40
2019-03-16T13:56:02.454Z,13.60
2019-03-16T13:58:29.876Z,13.60
2019-03-16T14:01:11.535Z,13.70
2019-03-16T14:03:39.893Z,13.70
2019-03-16T14:06:06.547Z,13.80
2019-03-16T14:08:36.051Z,14.00
2019-03-16T14:11:02.359Z,14.20
2019-03-16T14:13:32.086Z,14.10
2019-03-16T14:16:02.859Z,13.70
2019-03-16T14:18:29.253Z,13.50
2019-03-16T14:20:58.725Z,13.40
2019-03-16T14:23:28.062Z,13.40
2019-03-16T14:25:57.495Z,13.40
2019-03-16T14:28:23.905Z,13.40
2019-03-16T14:30:51.555Z,13.40
2019-03-16T14:33:17.982Z,13.30
2019-03-16T14:35:44.613Z,13.10
2019-03-16T14:38:11.266Z,13.20
2019-03-16T14:40:40.708Z,13.10
2019-03-16T14:43:07.016Z,13.20
2019-03-16T14:45:39.439Z,13.20
2019-03-16T14:48:05.815Z,13.30
2019-03-16T14:50:32.226Z,13.30
2019-03-16T14:52:58.735Z,13.20
2019-03-16T14:55:25.003Z,13.20
2019-03-16T14:57:51.347Z,13.20
2019-03-16T15:00:37.277Z,13.50
2019-03-16T15:02:53.002Z,13.60
2019-03-16T15:05:19.505Z,13.30
2019-03-16T15:07:45.851Z,13.20
2019-03-16T15:10:18.262Z,13.10
2019-03-16T15:12:44.547Z,13.00
2019-03-16T15:15:12.513Z,13.10
2019-03-16T15:17:44.878Z,13.00
2019-03-16T15:20:11.615Z,13.00
2019-03-16T15:22:38.101Z,13.10
2019-03-16T15:25:06.534Z,13.20
2019-03-16T15:27:32.880Z,13.30
2019-03-16T15:29:59.294Z,13.30
2019-03-16T15:32:30.587Z,13.30
2019-03-16T15:34:57.092Z,13.50
2019-03-16T15:37:23.981Z,13.30
2019-03-16T15:39:51.370Z,13.40
2019-03-16T15:42:17.719Z,13.40
2019-03-16T15:44:44.117Z,13.40
2019-03-16T15:47:10.603Z,13.40
2019-03-16T15:49:36.983Z,13.40
2019-03-16T15:52:06.504Z,13.30
2019-03-16T15:54:32.920Z,13.20
2019-03-16T15:57:05.649Z,13.00
2019-03-16T15:59:31.973Z,12.80
2019-03-16T16:01:58.290Z,12.80
2019-03-16T16:04:24.936Z,12.80
2019-03-16T16:06:51.583Z,12.80
2019-03-16T16:09:18.034Z,12.90
2019-03-16T16:11:44.683Z,13.10
2019-03-16T16:14:11.191Z,13.30
2019-03-16T16:16:37.643Z,13.30
2019-03-16T16:19:06.954Z,13.30
2019-03-16T16:21:33.379Z,13.30
2019-03-16T16:23:59.692Z,13.00
2019-03-16T16:26:28.041Z,13.00
2019-03-16T16:28:58.059Z,13.00
2019-03-16T16:31:25.009Z,12.90
2019-03-16T16:33:51.357Z,12.90
2019-03-16T16:36:21.090Z,13.00
2019-03-16T16:39:14.338Z,12.90
2019-03-16T16:41:41.064Z,13.00
2019-03-16T16:44:07.603Z,12.90
2019-03-16T16:46:33.890Z,13.00
2019-03-16T16:49:00.386Z,13.00
2019-03-16T16:51:26.786Z,12.90
2019-03-16T16:53:53.088Z,12.90
2019-03-16T16:56:19.798Z,12.80
2019-03-16T16:58:46.121Z,12.70
2019-03-16T17:01:12.481Z,12.60
2019-03-16T17:03:38.819Z,12.60
2019-03-16T17:06:05.185Z,12.70
2019-03-16T17:08:31.601Z,12.70
2019-03-16T17:10:58.078Z,12.70
2019-03-16T17:13:24.411Z,12.60
2019-03-16T17:15:51.488Z,12.70
2019-03-16T17:18:18.847Z,12.70
2019-03-16T17:20:45.300Z,12.80
2019-03-16T17:23:11.729Z,12.70
2019-03-16T17:25:38.361Z,12.70
2019-03-16T17:28:04.645Z,12.60
2019-03-16T17:30:32.889Z,12.70
2019-03-16T17:33:21.176Z,12.80
2019-03-16T17:35:53.514Z,12.80
2019-03-16T17:38:23.432Z,12.60
2019-03-16T17:40:55.939Z,12.60
2019-03-16T17:43:44.005Z,12.50
2019-03-16T17:46:13.426Z,12.60
2019-03-16T17:48:42.886Z,12.60
2019-03-16T17:51:09.273Z,12.70
2019-03-16T17:53:38.681Z,12.60
2019-03-16T17:56:20.459Z,12.60
2019-03-16T17:58:53.005Z,12.60
2019-03-16T18:01:23.009Z,12.70
2019-03-16T18:04:05.577Z,12.70
2019-03-16T18:06:35.144Z,12.60
2019-03-16T18:09:32.497Z,12.60
2019-03-16T18:12:00.845Z,12.50
2019-03-16T18:14:40.725Z,12.40
2019-03-16T18:17:14.845Z,12.30
2019-03-16T18:19:44.462Z,12.20
2019-03-16T18:22:10.750Z,12.20
2019-03-16T18:24:41.465Z,12.20
2019-03-16T18:27:11.839Z,12.10
2019-03-16T18:29:38.223Z,12.10
2019-03-16T18:32:08.068Z,12.10
2019-03-16T18:34:50.108Z,12.10
2019-03-16T18:37:50.221Z,12.10
2019-03-16T18:40:19.651Z,12.00
2019-03-16T18:42:45.933Z,12.10
2019-03-16T18:45:27.683Z,12.10
2019-03-16T18:48:00.083Z,12.20
2019-03-16T18:50:34.648Z,12.20
2019-03-16T18:53:14.478Z,12.30
2019-03-16T18:55:46.931Z,12.30
2019-03-16T18:58:13.227Z,12.40
2019-03-16T19:00:46.326Z,12.40
2019-03-16T19:03:17.840Z,12.40
2019-03-16T19:06:02.472Z,12.40
2019-03-16T19:08:31.904Z,12.40
2019-03-16T19:11:13.750Z,12.40
2019-03-16T19:13:48.806Z,12.40
2019-03-16T19:16:21.165Z,12.40
2019-03-16T19:19:20.945Z,12.30
2019-03-16T19:21:50.341Z,12.30
2019-03-16T19:24:16.612Z,12.30
2019-03-16T19:26:42.934Z,12.30
2019-03-16T19:29:36.280Z,12.30
2019-03-16T19:32:08.978Z,12.20
2019-03-16T19:34:35.310Z,12.30
2019-03-16T19:37:21.405Z,12.30
2019-03-16T19:39:50.963Z,12.30
2019-03-16T19:42:20.453Z,12.30
2019-03-16T19:45:02.259Z,12.30
2019-03-16T19:47:31.560Z,12.30
2019-03-16T19:49:57.914Z,12.30
2019-03-16T19:52:24.213Z,12.20
2019-03-16T19:54:53.746Z,12.30
2019-03-16T19:57:25.979Z,12.20
2019-03-16T20:00:01.714Z,12.30
2019-03-16T20:02:27.978Z,12.30
2019-03-16T20:04:54.291Z,12.30
2019-03-16T20:07:22.938Z,12.30
2019-03-16T20:09:48.921Z,12.30
2019-03-16T20:12:27.484Z,12.30
2019-03-16T20:14:59.797Z,12.40
2019-03-16T20:17:26.076Z,12.30
2019-03-16T20:19:55.479Z,12.30
2019-03-16T20:22:24.927Z,12.30
2019-03-16T20:24:57.436Z,12.30
2019-03-16T20:27:23.755Z,12.30
2019-03-16T20:29:50.164Z,12.30
2019-03-16T20:32:16.504Z,12.30
2019-03-16T20:34:55.112Z,12.30
2019-03-16T20:37:24.505Z,12.30
2019-03-16T20:39:53.900Z,12.20
2019-03-16T20:42:21.288Z,12.30
2019-03-16T20:44:50.690Z,12.30
2019-03-16T20:47:26.298Z,12.30
2019-03-16T20:49:58.849Z,12.30
2019-03-16T20:52:25.137Z,12.30
2019-03-16T20:54:55.743Z,12.30
2019-03-16T20:57:25.281Z,12.30
2019-03-16T20:59:51.597Z,12.20
2019-03-16T21:02:23.912Z,12.20
2019-03-16T21:04:53.430Z,12.20
2019-03-16T21:07:22.893Z,12.10
2019-03-16T21:09:52.288Z,12.20
2019-03-16T21:12:21.897Z,12.30
2019-03-16T21:14:51.297Z,12.20
2019-03-16T21:17:20.858Z,12.20
2019-03-16T21:19:50.293Z,12.20
2019-03-16T21:22:19.706Z,12.10
2019-03-16T21:24:46.095Z,12.10
2019-03-16T21:27:14.583Z,12.10
2019-03-16T21:29:46.051Z,12.20
2019-03-16T21:32:15.425Z,12.20
2019-03-16T21:34:41.792Z,12.20
2019-03-16T21:37:16.170Z,12.10
2019-03-16T21:39:45.579Z,12.10
2019-03-16T21:42:18.102Z,12.10
2019-03-16T21:44:47.573Z,12.10
2019-03-16T21:48:01.724Z,12.10
2019-03-16T21:50:43.063Z,12.10
2019-03-16T21:53:09.371Z,12.10
2019-03-16T21:55:41.677Z,12.10
2019-03-16T21:58:17.393Z,12.10
2019-03-16T22:01:08.612Z,12.10
2019-03-16T22:03:41.926Z,12.10
2019-03-16T22:06:06.121Z,12.20
2019-03-16T22:12:07.307Z,12.20
2019-03-16T22:14:43.040Z,12.10
2019-03-16T22:17:15.466Z,12.10
2019-03-16T22:19:43.317Z,12.20
2019-03-16T22:22:14.027Z,12.10
2019-03-16T22:24:46.377Z,12.10
2019-03-16T22:27:15.778Z,12.10
2019-03-16T22:30:17.835Z,12.20
2019-03-16T22:32:46.202Z,12.10
2019-03-16T22:35:18.533Z,12.10
2019-03-16T22:37:57.225Z,12.10
2019-03-16T22:40:26.642Z,12.10
2019-03-16T22:43:05.336Z,12.00
2019-03-16T22:45:38.106Z,12.00
2019-03-16T22:48:04.444Z,12.00
2019-03-16T22:50:34.044Z,12.00
2019-03-16T22:53:00.473Z,12.00
2019-03-16T22:55:27.832Z,12.00
2019-03-16T22:58:31.009Z,12.00
2019-03-16T23:01:07.806Z,11.90
2019-03-16T23:03:42.934Z,11.90
2019-03-16T23:06:12.327Z,11.90
2019-03-16T23:08:44.799Z,11.80
2019-03-16T23:11:20.345Z,11.80
2019-03-16T23:13:49.793Z,11.80
2019-03-16T23:16:18.685Z,11.70
2019-03-16T23:18:51.025Z,11.60
2019-03-16T23:21:20.469Z,11.50
2019-03-16T23:23:46.745Z,11.40
2019-03-16T23:26:16.088Z,11.30
2019-03-16T23:28:45.471Z,11.20
2019-03-16T23:31:21.018Z,11.20
2019-03-16T23:33:50.430Z,11.10
2019-03-16T23:39:45.252Z,11.00
2019-03-16T23:42:13.629Z,11.00
2019-03-16T23:44:46.177Z,11.00
2019-03-16T23:47:18.824Z,10.90
2019-03-16T23:49:48.179Z,10.90
2019-03-16T23:52:17.647Z,10.90
2019-03-16T23:55:04.866Z,10.80
2019-03-16T23:57:37.073Z,10.70
